Time;durP1;ratioP1;P1;durP2;ratioP2;P2;SDS_P1;SDS_P2;PMS_P1;PMS_P2;Temp;Humidity;BMP_temperature;BMP_pressure;BME280_temperature;BME280_humidity;BME280_pressure;Samples;Min_cycle;Max_cycle;Signal;HPM_P1;HPM_P2
2021/03/26 00:02:23;;;;;;;62.13;26.13;;;;;;;-0.79;100.00;95200.72;10450376;28;19916;-75
2021/03/26 00:07:23;;;;;;;62.35;31.10;;;;;;;-0.81;100.00;95212.47;10448768;28;20302;-75
2021/03/26 00:12:24;;;;;;;59.78;28.85;;;;;;;-0.80;100.00;95211.47;10448208;28;20451;-75
2021/03/26 00:17:24;;;;;;;61.95;30.60;;;;;;;-0.79;100.00;95213.91;10447228;28;20025;-75
2021/03/26 00:22:25;;;;;;;63.67;32.80;;;;;;;-0.69;100.00;95216.22;10448092;28;20056;-75
2021/03/26 00:27:25;;;;;;;66.32;33.30;;;;;;;-0.73;100.00;95221.06;10447560;28;20472;-76
2021/03/26 00:32:26;;;;;;;81.57;37.70;;;;;;;-0.82;100.00;95216.13;10446835;28;20029;-75
2021/03/26 00:37:26;;;;;;;80.47;36.38;;;;;;;-0.72;100.00;95213.97;10446573;28;20637;-75
2021/03/26 00:42:27;;;;;;;69.40;33.03;;;;;;;-0.71;100.00;95220.91;10445097;28;20024;-75
2021/03/26 00:47:27;;;;;;;65.90;35.17;;;;;;;-0.91;100.00;95212.78;10445890;28;20802;-75
2021/03/26 00:52:28;;;;;;;71.38;32.35;;;;;;;-0.89;100.00;95205.53;10445347;28;20704;-75
2021/03/26 00:57:28;;;;;;;69.67;32.60;;;;;;;-0.93;100.00;95214.81;10446621;28;20029;-75
2021/03/26 01:02:28;;;;;;;77.33;34.03;;;;;;;-0.93;100.00;95218.25;10444678;28;20275;-75
2021/03/26 01:07:29;;;;;;;62.30;27.20;;;;;;;-0.89;100.00;95214.25;10445202;28;20053;-75
2021/03/26 01:12:29;;;;;;;52.97;27.30;;;;;;;-0.88;100.00;95223.81;10444562;28;20287;-75
2021/03/26 01:17:29;;;;;;;49.47;27.27;;;;;;;-0.90;100.00;95222.34;10445535;28;20035;-75
2021/03/26 01:22:30;;;;;;;55.73;25.07;;;;;;;-0.78;100.00;95212.91;10445784;28;20021;-75
2021/03/26 01:27:30;;;;;;;63.73;28.47;;;;;;;-0.72;100.00;95208.69;10445282;28;20379;-75
2021/03/26 01:32:30;;;;;;;49.43;25.57;;;;;;;-0.83;100.00;95211.88;10445111;28;20092;-75
2021/03/26 01:37:32;;;;;;;43.97;20.73;;;;;;;-1.00;100.00;95220.03;10444519;28;20029;-75
2021/03/26 01:42:35;;;;;;;46.15;21.45;;;;;;;-1.02;100.00;95227.31;10444774;28;20021;-75
2021/03/26 01:47:35;;;;;;;34.70;18.45;;;;;;;-1.07;100.00;95232.34;10444380;28;20481;-75
2021/03/26 01:52:36;;;;;;;26.83;14.32;;;;;;;-0.99;100.00;95234.88;10444576;28;20037;-75
2021/03/26 01:57:36;;;;;;;29.90;15.30;;;;;;;-1.01;100.00;95233.41;10444417;28;20398;-76
2021/03/26 02:02:37;;;;;;;22.20;13.32;;;;;;;-0.95;100.00;95240.56;10443483;28;20455;-75
2021/03/26 02:07:38;;;;;;;20.52;11.75;;;;;;;-1.08;100.00;95246.53;10442862;28;20049;-76
2021/03/26 02:12:39;;;;;;;23.38;13.13;;;;;;;-1.02;100.00;95248.41;10444161;28;20037;-75
2021/03/26 02:17:40;;;;;;;24.20;12.10;;;;;;;-1.08;100.00;95252.63;10444080;28;20024;-76
2021/03/26 02:22:40;;;;;;;18.40;10.52;;;;;;;-1.30;100.00;95254.41;10443314;28;20025;-75
2021/03/26 02:27:41;;;;;;;30.42;14.07;;;;;;;-1.44;100.00;95255.28;10442312;28;20053;-75
2021/03/26 02:32:42;;;;;;;28.77;13.98;;;;;;;-1.62;100.00;95259.13;10443381;28;20043;-76
2021/03/26 02:38:04;;;;;;;32.65;15.93;;;;;;;-1.65;100.00;95262.13;10442954;28;20039;-76
2021/03/26 02:43:23;;;;;;;23.83;14.02;;;;;;;-1.73;100.00;95267.47;10443809;28;20107;-76
2021/03/26 02:48:41;;;;;;;20.38;10.23;;;;;;;-1.70;100.00;95271.56;10441992;28;20486;-75
2021/03/26 02:53:57;;;;;;;21.25;10.50;;;;;;;-1.93;100.00;95270.66;10442342;28;20029;-75
2021/03/26 02:59:05;;;;;;;20.38;10.20;;;;;;;-1.93;100.00;95283.84;10442322;28;20025;-76
2021/03/26 03:04:12;;;;;;;21.20;10.45;;;;;;;-1.86;100.00;95283.13;10442207;28;20088;-76
2021/03/26 03:09:14;;;;;;;18.73;10.15;;;;;;;-1.80;100.00;95275.31;10441709;28;20460;-76
2021/03/26 03:14:26;;;;;;;21.35;10.13;;;;;;;-1.65;100.00;95285.84;10441532;28;20037;-76
2021/03/26 03:19:39;;;;;;;20.85;10.75;;;;;;;-1.58;100.00;95285.91;10441111;28;20831;-75
2021/03/26 03:24:43;;;;;;;19.15;9.85;;;;;;;-1.57;100.00;95283.09;10440204;28;20023;-76
2021/03/26 03:29:53;;;;;;;21.85;10.98;;;;;;;-1.51;100.00;95286.00;10442760;28;20029;-76
2021/03/26 03:35:19;;;;;;;21.92;9.63;;;;;;;-1.57;100.00;95293.63;10439204;28;20083;-77
2021/03/26 03:40:52;;;;;;;20.38;10.55;;;;;;;-1.67;100.00;95303.66;10439875;28;20037;-75
2021/03/26 03:46:03;;;;;;;19.27;11.27;;;;;;;-1.81;100.00;95301.84;10436244;28;20502;-76
2021/03/26 03:51:16;;;;;;;22.83;12.75;;;;;;;-1.86;100.00;95312.91;10441976;28;20029;-76
2021/03/26 03:56:38;;;;;;;35.40;14.52;;;;;;;-1.79;100.00;95313.00;10440881;28;20071;-75
2021/03/26 04:01:45;;;;;;;38.63;16.70;;;;;;;-1.73;100.00;95315.75;10440964;28;20112;-73
2021/03/26 04:06:56;;;;;;;44.88;17.92;;;;;;;-1.75;100.00;95323.00;10440435;28;20142;-75
2021/03/26 04:12:03;;;;;;;34.03;17.38;;;;;;;-1.88;100.00;95317.56;10440466;28;20900;-75
2021/03/26 04:17:23;;;;;;;38.57;15.60;;;;;;;-1.78;100.00;95323.38;10441076;28;20108;-76
2021/03/26 04:22:27;;;;;;;25.42;11.38;;;;;;;-1.70;100.00;95325.13;10441242;28;20549;-76
2021/03/26 04:27:37;;;;;;;21.77;11.73;;;;;;;-1.67;100.00;95324.75;10440981;28;20099;-75
2021/03/26 04:32:38;;;;;;;29.15;12.75;;;;;;;-1.61;100.00;95333.75;10445270;28;20036;-76
2021/03/26 04:37:57;;;;;;;22.08;11.32;;;;;;;-1.48;100.00;95341.84;10447988;28;20108;-76
2021/03/26 04:43:05;;;;;;;26.02;12.65;;;;;;;-1.46;100.00;95341.66;10446495;28;20100;-77
2021/03/26 04:48:29;;;;;;;19.88;10.60;;;;;;;-1.42;100.00;95343.72;10444826;28;20053;-76
2021/03/26 04:53:39;;;;;;;30.33;11.77;;;;;;;-1.35;100.00;95348.25;10444860;28;20890;-76
2021/03/26 04:58:46;;;;;;;27.20;10.93;;;;;;;-1.22;100.00;95354.50;10443186;28;20024;-76
2021/03/26 05:03:53;;;;;;;32.40;11.00;;;;;;;-0.88;100.00;95358.38;10445037;28;20064;-76
2021/03/26 05:09:05;;;;;;;25.42;11.65;;;;;;;-0.79;100.00;95356.44;10446024;28;20083;-77
2021/03/26 05:14:12;;;;;;;23.08;10.13;;;;;;;-0.80;100.00;95367.97;10446833;28;20021;-76
2021/03/26 05:19:19;;;;;;;18.52;10.00;;;;;;;-0.61;100.00;95371.03;10446332;28;20035;-76
2021/03/26 05:24:26;;;;;;;27.02;10.57;;;;;;;-0.65;100.00;95383.78;10463055;28;20025;-76
2021/03/26 05:29:27;;;;;;;24.02;10.52;;;;;;;-0.33;100.00;95386.94;10469642;28;20175;-75
2021/03/26 05:34:35;;;;;;;18.38;9.82;;;;;;;0.57;100.00;95373.19;10445505;28;20098;-76
2021/03/26 05:39:37;;;;;;;24.10;11.10;;;;;;;1.53;97.15;95383.78;10467304;28;20054;-76
2021/03/26 05:45:02;;;;;;;32.92;14.63;;;;;;;2.29;88.91;95380.97;10485371;28;20107;-73
2021/03/26 05:50:40;;;;;;;30.95;12.63;;;;;;;3.01;79.32;95383.69;10447428;28;20040;-73
2021/03/26 05:55:48;;;;;;;26.40;11.55;;;;;;;3.73;70.55;95379.06;10442631;28;20143;-72
2021/03/26 06:00:54;;;;;;;24.70;11.00;;;;;;;4.40;65.93;95383.09;10443713;28;20487;-73
2021/03/26 06:05:55;;;;;;;20.80;10.20;;;;;;;4.00;62.28;95388.72;10442534;28;20045;-73
2021/03/26 06:11:16;;;;;;;17.70;9.95;;;;;;;4.40;61.54;95391.88;10443137;28;20040;-73
2021/03/26 06:16:23;;;;;;;29.17;9.63;;;;;;;4.50;59.35;95396.69;10442432;28;20029;-73
2021/03/26 06:21:56;;;;;;;31.67;11.13;;;;;;;5.56;59.33;95393.91;10442004;28;20426;-72
2021/03/26 06:26:59;;;;;;;35.25;14.40;;;;;;;6.43;57.26;95400.72;10442410;28;20032;-73
2021/03/26 06:32:22;;;;;;;24.35;9.50;;;;;;;7.31;50.64;95389.28;10442199;28;20025;-73
2021/03/26 06:37:47;;;;;;;37.75;13.07;;;;;;;7.80;50.43;95391.56;10441612;28;20060;-73
2021/03/26 06:43:10;;;;;;;30.10;13.13;;;;;;;8.25;50.43;95389.94;10464824;28;20860;-73
2021/03/26 06:48:29;;;;;;;34.47;13.57;;;;;;;8.65;48.33;95392.50;10482862;28;20062;-73
2021/03/26 06:53:43;;;;;;;38.75;15.75;;;;;;;9.13;47.58;95395.59;10480224;28;20035;-74
2021/03/26 06:59:15;;;;;;;35.92;15.63;;;;;;;10.17;45.66;95401.13;10460648;28;20025;-72
2021/03/26 07:04:53;;;;;;;54.70;16.92;;;;;;;10.90;42.60;95408.72;10458328;28;20040;-73
2021/03/26 07:10:02;;;;;;;39.53;17.67;;;;;;;11.20;44.10;95403.81;10458835;28;20040;-73
2021/03/26 07:15:05;;;;;;;43.38;17.52;;;;;;;12.32;42.56;95402.59;10457772;28;20047;-72
2021/03/26 07:20:13;;;;;;;33.47;15.63;;;;;;;14.00;38.21;95396.41;10457256;28;20056;-74
2021/03/26 07:25:20;;;;;;;38.90;15.30;;;;;;;14.68;36.75;95394.94;10456993;28;20025;-74
2021/03/26 07:30:23;;;;;;;26.30;13.45;;;;;;;15.37;34.99;95392.91;10460229;28;20037;-74
2021/03/26 07:35:45;;;;;;;27.23;10.95;;;;;;;16.10;32.81;95389.38;10478740;28;20025;-74
2021/03/26 07:41:02;;;;;;;21.35;11.15;;;;;;;16.12;31.40;95398.84;10480551;28;20386;-73
2021/03/26 07:46:38;;;;;;;24.07;11.87;;;;;;;16.30;32.49;95399.94;10457208;28;20044;-73
2021/03/26 07:51:57;;;;;;;28.30;10.50;;;;;;;16.93;30.93;95389.78;10479192;28;20070;-73
2021/03/26 07:57:19;;;;;;;21.60;11.23;;;;;;;17.89;30.31;95388.28;10480439;28;20032;-74
2021/03/26 08:02:57;;;;;;;22.13;9.40;;;;;;;18.54;28.06;95391.78;10474716;28;20024;-73
2021/03/26 08:08:34;;;;;;;16.73;9.68;;;;;;;17.65;29.20;95401.25;10486769;28;20172;-74
2021/03/26 08:14:25;;;;;;;21.33;9.90;;;;;;;18.46;29.34;95400.69;10486584;28;20028;-74
2021/03/26 08:19:54;;;;;;;18.27;9.07;;;;;;;19.46;28.11;95415.97;10461621;28;20051;-73
2021/03/26 08:24:54;;;;;;;16.05;9.35;;;;;;;18.79;26.59;95416.81;10487709;28;20090;-73
2021/03/26 08:30:13;;;;;;;18.40;9.20;;;;;;;18.82;27.66;95413.47;10485712;28;20036;-73
2021/03/26 08:35:44;;;;;;;29.67;11.93;;;;;;;18.03;29.44;95420.94;10465283;28;20586;-75
2021/03/26 08:41:01;;;;;;;21.92;10.93;;;;;;;15.85;31.52;95432.78;10442147;28;20870;-75
2021/03/26 08:46:32;;;;;;;17.73;9.63;;;;;;;14.36;32.19;95434.06;10442389;28;20029;-74
2021/03/26 08:51:51;;;;;;;21.00;9.05;;;;;;;13.18;35.20;95426.38;10452123;28;20028;-74
2021/03/26 08:57:16;;;;;;;16.00;9.75;;;;;;;11.90;34.94;95427.81;10487088;28;20454;-74
2021/03/26 09:02:30;;;;;;;18.90;9.40;;;;;;;12.12;36.92;95436.53;10486417;28;20048;-74
2021/03/26 09:07:51;;;;;;;30.55;12.27;;;;;;;12.00;37.29;95444.06;10484928;28;20048;-74
2021/03/26 09:13:19;;;;;;;30.92;10.07;;;;;;;11.87;38.78;95442.59;10467914;28;20054;-74
2021/03/26 09:19:13;;;;;;;18.98;8.60;;;;;;;14.83;33.82;95427.28;10442966;28;20056;-74
2021/03/26 09:24:35;;;;;;;13.02;7.55;;;;;;;15.72;31.58;95425.31;10368075;28;20033;-75
2021/03/26 09:29:44;;;;;;;21.38;9.25;;;;;;;14.35;34.03;95422.41;10444286;28;20025;-75
2021/03/26 09:35:11;;;;;;;15.27;8.60;;;;;;;10.68;38.60;95424.16;10444322;28;20116;-74
2021/03/26 09:40:21;;;;;;;25.08;10.60;;;;;;;10.83;42.24;95442.28;10416702;28;20044;-74
2021/03/26 09:45:53;;;;;;;19.48;9.15;;;;;;;14.07;36.97;95436.66;10443926;28;20025;-74
2021/03/26 09:51:07;;;;;;;23.65;8.70;;;;;;;18.20;30.08;95408.63;10479788;28;20040;-75
2021/03/26 09:56:45;;;;;;;20.30;8.02;;;;;;;21.60;26.02;95400.00;10483068;28;20078;-75
2021/03/26 10:01:53;;;;;;;11.80;6.68;;;;;;;21.94;24.25;95392.75;10482829;28;20059;-75
2021/03/26 10:07:14;;;;;;;14.65;7.30;;;;;;;20.02;24.99;95392.94;10482797;28;20040;-75
2021/03/26 10:12:18;;;;;;;19.35;8.98;;;;;;;20.96;26.33;95385.16;10483493;28;20031;-75
2021/03/26 10:17:44;;;;;;;19.98;8.63;;;;;;;20.80;25.90;95384.84;10483972;28;20082;-75
2021/03/26 10:23:03;;;;;;;13.18;7.32;;;;;;;22.51;23.48;95379.72;10482105;28;20025;-75
2021/03/26 10:28:22;;;;;;;12.55;6.60;;;;;;;23.09;23.40;95370.81;10483655;28;20028;-75
2021/03/26 10:33:36;;;;;;;13.35;6.53;;;;;;;24.26;21.74;95369.63;10482688;28;20038;-74
2021/03/26 10:38:36;;;;;;;10.80;6.50;;;;;;;24.05;21.76;95370.53;10468601;28;20036;-75
2021/03/26 10:43:56;;;;;;;13.52;7.63;;;;;;;23.48;23.04;95374.94;10441175;28;20052;-75
2021/03/26 10:49:10;;;;;;;18.42;7.28;;;;;;;23.20;21.71;95374.78;10474451;28;20494;-74
2021/03/26 10:54:32;;;;;;;18.52;8.35;;;;;;;21.93;24.29;95374.72;10473651;28;20021;-74
2021/03/26 10:59:51;;;;;;;18.00;8.43;;;;;;;20.80;25.93;95379.38;10482487;28;20054;-74
2021/03/26 11:05:23;;;;;;;15.55;8.30;;;;;;;21.36;24.31;95372.38;10480208;28;20049;-72
2021/03/26 11:10:29;;;;;;;13.32;7.38;;;;;;;21.29;23.28;95357.28;10426094;28;20048;-72
2021/03/26 11:15:34;;;;;;;12.02;7.10;;;;;;;22.00;25.15;95366.00;10474072;28;20034;-73
2021/03/26 11:20:58;;;;;;;14.07;6.68;;;;;;;22.96;22.59;95359.03;10480374;28;20033;-73
2021/03/26 11:26:05;;;;;;;12.13;7.35;;;;;;;21.54;24.29;95357.53;10443354;28;20025;-73
2021/03/26 11:31:42;;;;;;;11.77;5.82;;;;;;;18.27;25.83;95354.59;10454581;28;20036;-73
2021/03/26 11:36:50;;;;;;;12.32;6.65;;;;;;;16.46;27.95;95359.81;10455672;28;20029;-72
2021/03/26 11:42:06;;;;;;;12.63;8.03;;;;;;;14.41;30.89;95363.69;10463412;28;21260;-72
2021/03/26 11:47:26;;;;;;;14.90;7.63;;;;;;;13.17;34.17;95358.06;10466936;28;20415;-72
2021/03/26 11:52:27;;;;;;;10.20;6.63;;;;;;;12.42;32.44;95358.69;10460968;28;20044;-73
2021/03/26 11:57:53;;;;;;;15.32;7.13;;;;;;;11.28;34.97;95358.38;10467087;28;20032;-73
2021/03/26 12:03:17;;;;;;;18.75;6.97;;;;;;;11.04;37.03;95360.69;10464335;28;20089;-72
2021/03/26 12:08:22;;;;;;;12.50;6.97;;;;;;;11.15;35.26;95356.16;10481673;28;20061;-72
2021/03/26 12:13:25;;;;;;;14.82;7.82;;;;;;;11.07;36.73;95352.09;10474785;28;20033;-72
2021/03/26 12:19:04;;;;;;;22.08;7.88;;;;;;;10.94;39.83;95347.19;10457404;28;20032;-73
2021/03/26 12:24:21;;;;;;;11.73;7.50;;;;;;;10.88;36.29;95353.59;10451620;28;20033;-73
2021/03/26 12:29:21;;;;;;;13.85;8.15;;;;;;;10.20;36.56;95352.25;10449984;28;20032;-73
2021/03/26 12:34:43;;;;;;;19.77;9.57;;;;;;;10.51;38.87;95344.47;10471678;28;20392;-73
2021/03/26 12:39:49;;;;;;;13.10;7.75;;;;;;;10.41;37.85;95345.19;10486639;28;20119;-72
2021/03/26 12:45:31;;;;;;;16.40;8.75;;;;;;;10.51;37.72;95338.28;10485929;28;20025;-73
2021/03/26 12:50:40;;;;;;;11.75;6.75;;;;;;;10.11;32.95;95334.16;10461440;28;20123;-73
2021/03/26 12:55:49;;;;;;;13.07;6.75;;;;;;;9.90;37.03;95328.59;10486813;28;20023;-73
2021/03/26 13:00:55;;;;;;;13.95;6.60;;;;;;;10.30;37.83;95321.16;10486755;28;20024;-73
2021/03/26 13:06:11;;;;;;;15.50;7.95;;;;;;;10.15;38.58;95329.91;10485520;28;20053;-73
2021/03/26 13:11:26;;;;;;;14.18;6.43;;;;;;;9.45;36.17;95327.88;10486117;28;20150;-73
2021/03/26 13:16:46;;;;;;;16.70;6.75;;;;;;;9.84;40.24;95322.38;10484946;28;20107;-73
2021/03/26 13:22:05;;;;;;;18.15;7.20;;;;;;;9.93;41.51;95325.41;10486095;28;20025;-74
2021/03/26 13:27:18;;;;;;;12.43;7.00;;;;;;;9.97;41.45;95312.28;10484929;28;20039;-74
2021/03/26 13:32:23;;;;;;;14.95;8.50;;;;;;;9.87;41.96;95329.13;10484949;28;20039;-73
2021/03/26 13:37:28;;;;;;;12.57;7.32;;;;;;;9.73;40.00;95328.72;10484216;28;20017;-73
2021/03/26 13:42:34;;;;;;;14.93;8.40;;;;;;;9.54;42.80;95330.91;10482606;28;20108;-73
2021/03/26 13:47:47;;;;;;;25.30;9.50;;;;;;;9.46;42.14;95323.31;10485076;28;20031;-73
2021/03/26 13:52:51;;;;;;;18.90;9.60;;;;;;;9.65;40.43;95327.28;10483059;28;20024;-73
2021/03/26 13:58:05;;;;;;;13.30;8.15;;;;;;;9.44;42.94;95325.44;10484905;28;20735;-73
2021/03/26 14:03:23;;;;;;;19.80;8.77;;;;;;;9.50;42.51;95327.94;10460891;28;20830;-73
2021/03/26 14:08:28;;;;;;;13.65;8.05;;;;;;;9.44;42.08;95322.75;10442655;28;20404;-73
2021/03/26 14:13:35;;;;;;;14.45;7.85;;;;;;;9.33;43.05;95319.94;10442261;28;20029;-72
2021/03/26 14:18:39;;;;;;;15.77;7.22;;;;;;;9.33;44.76;95314.59;10441858;28;20048;-73
2021/03/26 14:23:41;;;;;;;15.85;7.72;;;;;;;9.35;44.44;95312.47;10472127;28;20028;-73
2021/03/26 14:29:04;;;;;;;18.40;7.18;;;;;;;9.16;42.61;95313.84;10483129;28;20495;-73
2021/03/26 14:34:26;;;;;;;12.48;7.50;;;;;;;9.39;42.75;95308.22;10460769;28;20028;-73
2021/03/26 14:39:32;;;;;;;17.50;7.55;;;;;;;9.23;43.50;95317.94;10470001;28;20056;-72
2021/03/26 14:44:44;;;;;;;19.33;7.90;;;;;;;9.06;44.12;95315.34;10468182;28;20029;-72
2021/03/26 14:49:51;;;;;;;15.65;8.50;;;;;;;9.11;45.16;95314.63;10439779;28;20457;-72
2021/03/26 14:55:26;;;;;;;15.35;6.90;;;;;;;9.08;42.03;95315.09;10462231;28;20028;-72
2021/03/26 15:00:29;;;;;;;16.70;6.95;;;;;;;9.05;41.83;95316.41;10461679;28;20071;-72
2021/03/26 15:05:54;;;;;;;11.40;7.03;;;;;;;8.91;43.10;95325.88;10480448;28;20071;-73
2021/03/26 15:11:00;;;;;;;14.90;8.00;;;;;;;8.87;44.31;95325.56;10438501;28;20123;-73
2021/03/26 15:16:15;;;;;;;14.23;7.88;;;;;;;8.89;44.43;95326.13;10438398;28;20019;-73
2021/03/26 15:21:42;;;;;;;17.00;7.97;;;;;;;8.94;44.62;95333.41;10439704;28;20031;-72
2021/03/26 15:27:07;;;;;;;13.95;7.47;;;;;;;8.90;45.58;95332.28;10452205;28;20482;-72
2021/03/26 15:32:31;;;;;;;16.35;7.85;;;;;;;8.69;45.50;95339.22;10481518;28;20064;-72
2021/03/26 15:37:37;;;;;;;14.38;8.05;;;;;;;8.57;45.87;95343.88;10440046;28;20029;-72
2021/03/26 15:42:58;;;;;;;18.02;8.82;;;;;;;8.61;45.66;95335.13;10440645;28;20033;-72
2021/03/26 15:48:01;;;;;;;17.05;7.78;;;;;;;8.41;45.76;95338.25;10453193;28;20782;-71
2021/03/26 15:53:13;;;;;;;16.17;9.30;;;;;;;8.32;44.86;95343.22;10438469;28;20028;-72
2021/03/26 15:58:42;;;;;;;14.40;8.18;;;;;;;8.23;45.14;95341.97;10466771;28;20537;-72
2021/03/26 16:03:43;;;;;;;15.73;8.25;;;;;;;8.32;45.96;95345.09;10480280;28;20386;-72
2021/03/26 16:09:14;;;;;;;24.08;8.27;;;;;;;8.25;45.34;95355.13;10448449;28;20043;-72
2021/03/26 16:14:50;;;;;;;21.27;9.77;;;;;;;8.20;46.67;95359.38;10439020;28;20055;-77
2021/03/26 16:20:14;;;;;;;19.85;9.75;;;;;;;8.09;46.67;95354.88;10443220;28;20021;-76
2021/03/26 16:25:38;;;;;;;20.45;10.32;;;;;;;7.95;48.50;95359.72;10483847;28;20059;-77
2021/03/26 16:30:40;;;;;;;20.73;9.10;;;;;;;7.84;47.70;95350.72;10451553;28;20144;-77
2021/03/26 16:35:56;;;;;;;25.05;9.75;;;;;;;7.72;48.35;95371.34;10470365;28;20122;-79
2021/03/26 16:41:15;;;;;;;29.77;11.70;;;;;;;7.66;48.24;95373.13;10491449;28;20036;-77
2021/03/26 16:46:43;;;;;;;16.98;9.02;;;;;;;7.44;48.53;95385.53;10467206;28;20065;-77
2021/03/26 16:51:51;;;;;;;22.33;10.00;;;;;;;7.19;50.18;95378.63;10478613;28;20637;-77
2021/03/26 16:57:05;;;;;;;20.00;11.38;;;;;;;6.89;50.93;95395.59;10494357;28;20028;-78
2021/03/26 17:02:37;;;;;;;30.45;14.50;;;;;;;6.57;55.94;95397.81;10491175;28;20037;-77
2021/03/26 17:07:58;;;;;;;29.55;15.98;;;;;;;6.22;60.36;95406.59;10493417;28;20064;-78
2021/03/26 17:13:52;;;;;;;33.92;15.95;;;;;;;5.98;62.95;95406.53;10470165;28;20079;-78
2021/03/26 17:19:29;;;;;;;29.67;13.43;;;;;;;5.81;65.29;95420.47;10449452;28;20087;-78
2021/03/26 17:24:52;;;;;;;25.55;13.18;;;;;;;5.55;65.61;95428.81;10447010;28;20043;-78
2021/03/26 17:30:01;;;;;;;28.35;13.65;;;;;;;5.46;66.82;95426.44;10445744;28;20064;-77
2021/03/26 17:35:18;;;;;;;27.95;14.73;;;;;;;5.42;67.71;95437.78;10484727;28;20028;-77
2021/03/26 17:40:33;;;;;;;27.30;16.77;;;;;;;5.27;69.17;95441.66;10480661;28;20134;-77
2021/03/26 17:45:58;;;;;;;31.73;17.60;;;;;;;5.22;68.89;95457.47;10486791;28;20032;-77
2021/03/26 17:51:19;;;;;;;36.22;17.50;;;;;;;5.24;68.11;95462.59;10483861;28;20112;-77
2021/03/26 17:56:39;;;;;;;31.13;14.52;;;;;;;5.19;67.37;95470.41;10474838;28;20146;-76
2021/03/26 18:02:10;;;;;;;27.70;13.07;;;;;;;5.18;67.40;95469.63;10460382;28;20032;-72
2021/03/26 18:07:22;;;;;;;28.83;13.80;;;;;;;5.03;67.81;95477.16;10459033;28;20044;-71
2021/03/26 18:12:42;;;;;;;29.55;14.60;;;;;;;5.03;67.07;95477.16;10461366;28;20028;-72
2021/03/26 18:18:00;;;;;;;34.80;16.23;;;;;;;4.92;67.68;95484.81;10469330;28;20036;-72
2021/03/26 18:23:24;;;;;;;30.35;14.23;;;;;;;4.98;68.04;95488.44;10470856;28;20106;-73
2021/03/26 18:28:27;;;;;;;32.53;14.05;;;;;;;4.92;67.95;95492.78;10460772;28;20040;-73
2021/03/26 18:34:05;;;;;;;26.73;12.90;;;;;;;4.92;66.84;95499.97;10463786;28;20538;-72
2021/03/26 18:39:05;;;;;;;21.88;13.50;;;;;;;4.90;66.12;95513.53;10462763;28;20036;-72
2021/03/26 18:44:42;;;;;;;23.13;11.80;;;;;;;4.88;65.82;95504.13;10460839;28;20029;-73
2021/03/26 18:50:01;;;;;;;23.15;13.00;;;;;;;4.81;65.03;95517.47;10448046;28;20039;-73
2021/03/26 18:55:20;;;;;;;;;;;;;;;4.77;65.02;95516.28;10478921;28;20025;-73
2021/03/26 19:00:26;;;;;;;23.27;10.77;;;;;;;4.69;66.23;95520.03;10481467;28;19908;-73
2021/03/26 19:05:44;;;;;;;22.00;11.35;;;;;;;4.74;64.79;95530.03;10481798;28;20049;-72
2021/03/26 19:10:54;;;;;;;25.57;10.40;;;;;;;4.75;65.20;95531.69;10455004;28;20893;-72
2021/03/26 19:16:06;;;;;;;21.05;11.48;;;;;;;4.82;65.46;95531.63;10442133;28;20021;-73
2021/03/26 19:21:32;;;;;;;21.67;11.98;;;;;;;4.72;64.69;95535.59;10442236;28;20089;-73
2021/03/26 19:26:53;;;;;;;22.63;10.93;;;;;;;4.79;70.03;95543.53;10473252;28;20032;-73
2021/03/26 19:32:14;;;;;;;25.02;11.35;;;;;;;4.86;68.40;95541.63;10483381;28;20392;-72
2021/03/26 19:37:44;;;;;;;19.55;10.65;;;;;;;4.86;69.38;95540.81;10471235;28;20075;-72
2021/03/26 19:43:07;;;;;;;28.55;13.05;;;;;;;4.66;70.99;95549.78;10482600;28;20024;-78
2021/03/26 19:48:29;;;;;;;26.85;13.15;;;;;;;4.54;71.02;95549.63;10474549;28;20024;-77
2021/03/26 19:54:04;;;;;;;26.52;13.45;;;;;;;4.34;73.92;95560.41;10441091;28;20456;-77
2021/03/26 19:59:25;;;;;;;25.73;14.43;;;;;;;4.33;72.31;95560.63;10421233;28;20048;-77
2021/03/26 20:04:41;;;;;;;28.48;14.05;;;;;;;4.25;74.37;95557.16;10451294;28;20823;-77
2021/03/26 20:09:58;;;;;;;33.22;14.75;;;;;;;4.19;76.99;95550.03;10453209;28;20029;-78
2021/03/26 20:15:17;;;;;;;40.15;15.13;;;;;;;4.03;81.01;95550.53;10452324;28;20472;-78
2021/03/26 20:20:45;;;;;;;27.50;14.25;;;;;;;3.97;83.98;95562.81;10453875;28;20033;-77
2021/03/26 20:26:00;;;;;;;39.15;15.45;;;;;;;3.80;87.46;95559.03;10488362;28;20025;-77
2021/03/26 20:31:28;;;;;;;39.40;16.65;;;;;;;3.72;88.23;95568.84;10490441;28;20027;-77
2021/03/26 20:36:42;;;;;;;40.17;16.77;;;;;;;3.66;92.27;95574.19;10468559;28;20231;-77
2021/03/26 20:41:56;;;;;;;35.63;15.65;;;;;;;3.58;88.09;95576.03;10448259;28;20476;-77
2021/03/26 20:47:27;;;;;;;37.65;15.98;;;;;;;3.48;91.51;95580.97;10446314;28;20034;-77
2021/03/26 20:52:27;;;;;;;38.25;16.27;;;;;;;3.40;88.90;95586.50;10482317;28;20043;-77
2021/03/26 20:57:43;;;;;;;42.63;16.50;;;;;;;3.23;87.56;95578.94;10488040;28;20498;-77
2021/03/26 21:02:55;;;;;;;34.22;15.80;;;;;;;3.10;88.25;95578.13;10457266;28;20107;-76
2021/03/26 21:08:01;;;;;;;37.67;16.08;;;;;;;3.13;88.50;95575.91;10446610;28;20531;-76
2021/03/26 21:13:20;;;;;;;37.70;16.70;;;;;;;3.09;89.69;95580.00;10445023;28;20533;-76
2021/03/26 21:19:02;;;;;;;33.17;16.58;;;;;;;3.09;91.18;95572.03;10469742;28;20033;-73
2021/03/26 21:24:14;;;;;;;36.97;16.13;;;;;;;2.84;89.45;95577.94;10400114;28;20032;-73
2021/03/26 21:29:20;;;;;;;37.47;15.40;;;;;;;2.88;88.19;95575.72;10479344;28;20564;-73
2021/03/26 21:34:37;;;;;;;35.75;14.55;;;;;;;2.86;85.62;95578.56;10486947;28;20364;-72
2021/03/26 21:39:53;;;;;;;29.38;13.75;;;;;;;2.70;85.38;95584.25;10486425;28;20067;-72
2021/03/26 21:45:03;;;;;;;31.15;14.40;;;;;;;2.61;86.20;95586.31;10486953;28;20557;-72
2021/03/26 21:50:18;;;;;;;27.35;13.57;;;;;;;2.48;86.88;95584.41;10485680;28;20028;-72
2021/03/26 21:55:26;;;;;;;27.90;12.55;;;;;;;2.42;87.86;95587.09;10486282;28;20051;-73
2021/03/26 22:00:54;;;;;;;31.15;13.32;;;;;;;2.26;90.04;95588.25;10486253;28;20490;-72
2021/03/26 22:06:06;;;;;;;34.28;12.13;;;;;;;1.96;94.63;95589.38;10485171;28;20458;-73
2021/03/26 22:11:09;;;;;;;27.73;13.57;;;;;;;1.95;96.38;95593.03;10483955;28;20747;-73
2021/03/26 22:16:43;;;;;;;25.83;12.43;;;;;;;1.87;96.34;95594.03;10484653;28;20403;-72
2021/03/26 22:22:09;;;;;;;23.70;11.50;;;;;;;1.87;96.00;95588.72;10472251;28;20793;-73
2021/03/26 22:27:31;;;;;;;26.48;12.95;;;;;;;1.87;95.68;95588.72;10467799;28;20029;-72
2021/03/26 22:32:53;;;;;;;23.67;11.80;;;;;;;1.75;95.00;95587.66;10457680;28;20541;-72
2021/03/26 22:38:06;;;;;;;19.35;10.50;;;;;;;1.75;94.14;95584.19;10484522;28;20058;-72
2021/03/26 22:43:19;;;;;;;20.95;10.23;;;;;;;1.77;94.88;95582.97;10482921;28;21978;-72
2021/03/26 22:48:57;;;;;;;24.52;11.85;;;;;;;1.78;94.57;95587.25;10482603;28;20028;-72
2021/03/26 22:54:28;;;;;;;19.83;10.35;;;;;;;1.77;94.71;95585.59;10483756;28;20063;-73
2021/03/26 22:59:43;;;;;;;18.23;10.68;;;;;;;1.83;97.19;95590.13;10484029;28;20039;-73
2021/03/26 23:04:51;;;;;;;24.35;11.38;;;;;;;1.91;98.19;95596.28;10482536;28;20048;-73
2021/03/26 23:10:15;;;;;;;20.25;10.40;;;;;;;1.54;100.00;95593.88;10455732;28;20033;-73
2021/03/26 23:15:26;;;;;;;23.50;10.73;;;;;;;1.23;100.00;95589.81;10441099;28;20048;-73
2021/03/26 23:20:32;;;;;;;25.00;12.15;;;;;;;0.99;100.00;95588.38;10447064;28;20025;-80
2021/03/26 23:25:59;;;;;;;29.52;12.90;;;;;;;0.80;100.00;95593.34;10451908;28;20133;-79
2021/03/26 23:31:04;;;;;;;16.10;11.05;;;;;;;0.78;100.00;95592.72;10451884;28;20106;-79
2021/03/26 23:36:10;;;;;;;24.40;13.00;;;;;;;0.65;100.00;95598.69;10454807;28;20475;-80
2021/03/26 23:41:18;;;;;;;25.42;13.38;;;;;;;0.59;100.00;95598.66;10460886;28;20112;-80
2021/03/26 23:46:24;;;;;;;27.25;12.85;;;;;;;0.59;100.00;95599.47;10493579;28;20130;-82
2021/03/26 23:51:31;;;;;;;27.35;13.43;;;;;;;0.64;100.00;95602.38;10475621;28;20411;-82
2021/03/26 23:56:33;;;;;;;30.60;11.43;;;;;;;0.65;100.00;95595.25;10449824;28;20060;-82
